createdAt,value
2023-09-03T00:02:06.756Z,100.00
2023-09-03T00:04:36.261Z,100.00
2023-09-03T00:07:05.944Z,100.00
2023-09-03T00:09:36.001Z,100.00
2023-09-03T00:12:07.217Z,100.00
2023-09-03T00:14:38.124Z,100.00
2023-09-03T00:17:07.572Z,100.00
2023-09-03T00:19:37.028Z,100.00
2023-09-03T00:22:06.532Z,100.00
2023-09-03T00:24:36.155Z,100.00
2023-09-03T00:27:06.189Z,100.00
2023-09-03T00:29:37.721Z,100.00
2023-09-03T00:32:07.453Z,100.00
2023-09-03T00:34:36.993Z,100.00
2023-09-03T00:37:06.596Z,100.00
2023-09-03T00:39:36.626Z,100.00
2023-09-03T00:42:06.452Z,100.00
2023-09-03T00:44:37.385Z,100.00
2023-09-03T00:47:08.308Z,100.00
2023-09-03T00:49:44.879Z,100.00
2023-09-03T00:52:19.583Z,100.00
2023-09-03T00:54:49.504Z,100.00
2023-09-03T00:57:19.124Z,100.00
2023-09-03T00:59:51.453Z,100.00
2023-09-03T01:02:22.417Z,100.00
2023-09-03T01:04:51.897Z,100.00
2023-09-03T01:07:21.739Z,100.00
2023-09-03T01:09:51.311Z,100.00
2023-09-03T01:12:36.171Z,100.00
2023-09-03T01:15:14.257Z,100.00
2023-09-03T01:17:55.078Z,100.00
2023-09-03T01:20:33.190Z,100.00
2023-09-03T01:23:42.374Z,100.00
2023-09-03T01:26:43.276Z,100.00
2023-09-03T01:29:15.637Z,100.00
2023-09-03T01:31:46.302Z,100.00
2023-09-03T01:34:17.368Z,100.00
2023-09-03T01:36:47.698Z,100.00
2023-09-03T01:39:18.282Z,100.00
2023-09-03T01:41:47.836Z,100.00
2023-09-03T01:44:18.714Z,100.00
2023-09-03T01:46:52.005Z,100.00
2023-09-03T01:49:36.927Z,100.00
2023-09-03T01:52:23.848Z,100.00
2023-09-03T01:54:57.406Z,100.00
2023-09-03T01:57:32.618Z,100.00
2023-09-03T02:00:10.505Z,100.00
2023-09-03T02:02:46.188Z,100.00
2023-09-03T02:05:16.652Z,100.00
2023-09-03T02:07:46.249Z,100.00
2023-09-03T02:10:17.563Z,100.00
2023-09-03T02:12:47.587Z,100.00
2023-09-03T02:15:18.659Z,100.00
2023-09-03T02:17:48.127Z,100.00
2023-09-03T02:20:18.673Z,100.00
2023-09-03T02:22:48.121Z,100.00
2023-09-03T02:25:17.844Z,100.00
2023-09-03T02:27:47.336Z,100.00
2023-09-03T02:30:18.144Z,100.00
2023-09-03T02:32:47.852Z,100.00
2023-09-03T02:35:17.452Z,100.00
2023-09-03T02:37:46.984Z,100.00
2023-09-03T02:40:17.355Z,100.00
2023-09-03T02:42:46.965Z,100.00
2023-09-03T02:45:17.964Z,100.00
2023-09-03T02:47:47.520Z,100.00
2023-09-03T02:50:17.067Z,100.00
2023-09-03T02:52:46.701Z,100.00
2023-09-03T02:55:16.472Z,100.00
2023-09-03T02:57:45.977Z,100.00
2023-09-03T03:00:19.399Z,100.00
2023-09-03T03:02:48.927Z,100.00
2023-09-03T03:05:18.615Z,100.00
2023-09-03T03:07:48.214Z,100.00
2023-09-03T03:10:17.779Z,100.00
2023-09-03T03:12:48.202Z,100.00
2023-09-03T03:15:21.308Z,100.00
2023-09-03T03:17:51.248Z,100.00
2023-09-03T03:20:23.135Z,100.00
2023-09-03T03:22:52.708Z,100.00
2023-09-03T03:25:22.811Z,100.00
2023-09-03T03:27:52.358Z,100.00
2023-09-03T03:30:23.400Z,100.00
2023-09-03T03:32:55.313Z,100.00
2023-09-03T03:35:25.800Z,100.00
2023-09-03T03:37:55.342Z,100.00
2023-09-03T03:40:24.896Z,100.00
2023-09-03T03:42:54.631Z,100.00
2023-09-03T03:45:25.622Z,100.00
2023-09-03T03:47:56.002Z,100.00
2023-09-03T03:50:25.850Z,100.00
2023-09-03T03:52:56.331Z,100.00
2023-09-03T03:55:25.893Z,100.00
2023-09-03T03:57:55.868Z,100.00
2023-09-03T04:00:26.799Z,100.00
2023-09-03T04:02:59.949Z,100.00
2023-09-03T04:05:30.021Z,100.00
2023-09-03T04:07:59.934Z,100.00
2023-09-03T04:10:29.463Z,100.00
2023-09-03T04:12:59.102Z,100.00
2023-09-03T04:15:30.076Z,100.00
2023-09-03T04:17:59.841Z,100.00
2023-09-03T04:20:29.589Z,100.00
2023-09-03T04:23:02.227Z,100.00
2023-09-03T04:25:31.809Z,100.00
2023-09-03T04:28:01.871Z,100.00
2023-09-03T04:30:32.779Z,100.00
2023-09-03T04:33:02.441Z,100.00
2023-09-03T04:35:32.253Z,100.00
2023-09-03T04:38:01.859Z,100.00
2023-09-03T04:40:35.384Z,100.00
2023-09-03T04:43:07.667Z,100.00
2023-09-03T04:45:39.037Z,100.00
2023-09-03T04:48:09.095Z,100.00
2023-09-03T04:50:39.286Z,100.00
2023-09-03T04:53:09.572Z,100.00
2023-09-03T04:55:40.893Z,100.00
2023-09-03T04:58:10.501Z,100.00
2023-09-03T05:00:41.819Z,100.00
2023-09-03T05:03:13.022Z,100.00
2023-09-03T05:05:43.554Z,100.00
2023-09-03T05:08:14.997Z,100.00
2023-09-03T05:10:46.783Z,100.00
2023-09-03T05:13:16.323Z,100.00
2023-09-03T05:15:47.255Z,100.00
2023-09-03T05:18:16.815Z,100.00
2023-09-03T05:20:46.431Z,100.00
2023-09-03T05:23:15.973Z,100.00
2023-09-03T05:25:45.471Z,100.00
2023-09-03T05:28:15.852Z,100.00
2023-09-03T05:30:51.137Z,100.00
2023-09-03T05:33:21.074Z,100.00
2023-09-03T05:35:50.948Z,100.00
2023-09-03T05:38:20.730Z,100.00
2023-09-03T05:40:50.342Z,100.00
2023-09-03T05:43:23.158Z,100.00
2023-09-03T05:45:57.009Z,100.00
2023-09-03T05:48:27.820Z,100.00
2023-09-03T05:51:04.628Z,100.00
2023-09-03T05:53:36.351Z,100.00
2023-09-03T05:56:08.581Z,100.00
2023-09-03T05:58:39.266Z,100.00
2023-09-03T06:01:12.989Z,100.00
2023-09-03T06:03:43.565Z,100.00
2023-09-03T06:06:16.400Z,100.00
2023-09-03T06:08:45.973Z,100.00
2023-09-03T06:11:16.091Z,100.00
2023-09-03T06:13:45.625Z,100.00
2023-09-03T06:16:16.580Z,100.00
2023-09-03T06:18:46.389Z,100.00
2023-09-03T06:21:16.039Z,100.00
2023-09-03T06:23:45.581Z,100.00
2023-09-03T06:26:16.016Z,100.00
2023-09-03T06:28:45.647Z,100.00
2023-09-03T06:31:16.991Z,100.00
2023-09-03T06:33:46.886Z,100.00
2023-09-03T06:36:16.440Z,100.00
2023-09-03T06:38:46.202Z,100.00
2023-09-03T06:41:15.786Z,100.00
2023-09-03T06:43:45.544Z,100.00
2023-09-03T06:46:16.383Z,100.00
2023-09-03T06:48:45.949Z,100.00
2023-09-03T06:51:15.477Z,100.00
2023-09-03T06:53:44.996Z,100.00
2023-09-03T06:56:14.580Z,100.00
2023-09-03T06:58:44.281Z,100.00
2023-09-03T07:01:15.446Z,100.00
2023-09-03T07:03:45.183Z,100.00
2023-09-03T07:06:14.756Z,100.00
2023-09-03T07:08:44.304Z,100.00
2023-09-03T07:11:13.866Z,100.00
2023-09-03T07:13:43.371Z,100.00
2023-09-03T07:16:12.887Z,100.00
2023-09-03T07:18:43.744Z,100.00
2023-09-03T07:21:13.336Z,100.00
2023-09-03T07:23:42.958Z,100.00
2023-09-03T07:26:12.500Z,100.00
2023-09-03T07:28:42.384Z,100.00
2023-09-03T07:31:12.018Z,100.00
2023-09-03T07:33:42.920Z,100.00
2023-09-03T07:36:14.674Z,100.00
2023-09-03T07:38:44.173Z,100.00
2023-09-03T07:41:13.641Z,100.00
2023-09-03T07:43:43.294Z,100.00
2023-09-03T07:46:12.932Z,100.00
2023-09-03T07:48:43.873Z,100.00
2023-09-03T07:51:16.157Z,100.00
2023-09-03T07:53:45.785Z,100.00
2023-09-03T07:56:15.559Z,100.00
2023-09-03T07:58:45.588Z,100.00
2023-09-03T08:01:17.837Z,100.00
2023-09-03T08:03:49.131Z,100.00
2023-09-03T08:06:18.723Z,100.00
2023-09-03T08:08:54.564Z,100.00
2023-09-03T08:11:24.386Z,100.00
2023-09-03T08:14:02.412Z,100.00
2023-09-03T08:16:32.125Z,100.00
2023-09-03T08:19:03.011Z,100.00
2023-09-03T08:21:32.605Z,100.00
2023-09-03T08:24:02.113Z,100.00
2023-09-03T08:26:31.619Z,100.00
2023-09-03T08:29:01.472Z,100.00
2023-09-03T08:31:31.196Z,100.00
2023-09-03T08:34:02.119Z,100.00
2023-09-03T08:36:31.670Z,100.00
2023-09-03T08:39:01.899Z,100.00
2023-09-03T08:41:32.238Z,100.00
2023-09-03T08:44:06.406Z,100.00
2023-09-03T08:46:39.220Z,100.00
2023-09-03T08:49:11.595Z,100.00
2023-09-03T08:51:41.383Z,100.00
2023-09-03T08:54:11.466Z,100.00
2023-09-03T08:56:41.030Z,100.00
2023-09-03T08:59:12.093Z,100.00
2023-09-03T09:01:42.976Z,100.00
2023-09-03T09:04:14.590Z,100.00
2023-09-03T09:06:47.100Z,100.00
2023-09-03T09:09:17.937Z,100.00
2023-09-03T09:11:55.453Z,100.00
2023-09-03T09:14:34.932Z,100.00
2023-09-03T09:17:04.570Z,100.00
2023-09-03T09:19:35.487Z,100.00
2023-09-03T09:22:05.644Z,100.00
2023-09-03T09:24:44.757Z,100.00
2023-09-03T09:27:20.468Z,100.00
2023-09-03T09:29:50.011Z,100.00
2023-09-03T09:32:22.565Z,100.00
2023-09-03T09:34:53.360Z,100.00
2023-09-03T09:37:22.740Z,100.00
2023-09-03T09:39:52.796Z,100.00
2023-09-03T09:42:22.341Z,100.00
2023-09-03T09:45:00.469Z,100.00
2023-09-03T09:47:31.027Z,100.00
2023-09-03T09:50:02.135Z,100.00
2023-09-03T09:52:38.814Z,100.00
2023-09-03T09:55:09.636Z,100.00
2023-09-03T09:57:39.341Z,100.00
2023-09-03T10:00:12.311Z,100.00
2023-09-03T10:02:59.622Z,100.00
2023-09-03T10:05:31.229Z,100.00
2023-09-03T10:08:02.854Z,100.00
2023-09-03T10:10:33.194Z,100.00
2023-09-03T10:13:03.787Z,100.00
2023-09-03T10:15:34.737Z,100.00
2023-09-03T10:18:06.909Z,100.00
2023-09-03T10:20:39.557Z,100.00
2023-09-03T10:23:10.143Z,100.00
2023-09-03T10:25:42.449Z,100.00
2023-09-03T10:28:14.799Z,100.00
2023-09-03T10:30:52.315Z,100.00
2023-09-03T10:33:22.208Z,100.00
2023-09-03T10:36:17.194Z,100.00
2023-09-03T10:38:47.966Z,100.00
2023-09-03T10:41:23.990Z,100.00
2023-09-03T10:43:55.435Z,100.00
2023-09-03T10:46:26.708Z,100.00
2023-09-03T10:48:58.877Z,100.00
2023-09-03T10:51:41.278Z,100.00
2023-09-03T10:54:21.607Z,100.00
2023-09-03T10:57:19.600Z,100.00
2023-09-03T11:00:10.942Z,100.00
2023-09-03T11:02:48.556Z,100.00
2023-09-03T11:05:27.660Z,100.00
2023-09-03T11:08:31.550Z,100.00
2023-09-03T11:11:01.696Z,100.00
2023-09-03T11:13:39.024Z,100.00
2023-09-03T11:16:09.397Z,100.00
2023-09-03T11:18:39.750Z,100.00
2023-09-03T11:21:09.345Z,100.00
2023-09-03T11:23:40.252Z,100.00
2023-09-03T11:26:15.737Z,100.00
2023-09-03T11:28:47.221Z,100.00
2023-09-03T11:31:17.480Z,97.60
2023-09-03T11:33:47.193Z,100.00
2023-09-03T11:36:16.927Z,97.83
2023-09-03T11:38:47.783Z,100.00
2023-09-03T11:41:19.807Z,90.21
2023-09-03T11:43:50.227Z,92.71
2023-09-03T11:46:20.915Z,92.14
2023-09-03T11:48:55.177Z,90.25
2023-09-03T11:51:29.204Z,86.11
2023-09-03T11:54:00.459Z,87.31
2023-09-03T11:56:31.482Z,85.90
2023-09-03T11:59:05.827Z,83.68
2023-09-03T12:01:36.884Z,84.46
2023-09-03T12:04:07.674Z,82.64
2023-09-03T12:06:38.262Z,78.15
2023-09-03T12:09:11.081Z,85.47
2023-09-03T12:11:40.690Z,83.24
2023-09-03T12:14:11.638Z,79.46
2023-09-03T12:16:53.290Z,82.17
2023-09-03T12:19:23.094Z,76.72
2023-09-03T12:21:56.086Z,78.19
2023-09-03T12:24:30.270Z,78.72
2023-09-03T12:27:05.043Z,78.11
2023-09-03T12:29:50.719Z,80.94
2023-09-03T12:32:36.658Z,76.21
2023-09-03T12:35:20.276Z,79.74
2023-09-03T12:37:50.732Z,75.78
2023-09-03T12:40:22.079Z,75.82
2023-09-03T12:42:51.740Z,75.76
2023-09-03T12:45:21.609Z,75.63
2023-09-03T12:47:51.176Z,75.14
2023-09-03T12:50:20.821Z,75.45
2023-09-03T12:52:50.363Z,73.81
2023-09-03T12:55:22.979Z,76.28
2023-09-03T12:57:53.128Z,76.37
2023-09-03T13:00:22.923Z,72.82
2023-09-03T13:02:52.583Z,72.64
2023-09-03T13:05:24.921Z,72.33
2023-09-03T13:07:54.288Z,73.56
2023-09-03T13:10:25.104Z,72.02
2023-09-03T13:12:54.691Z,72.65
2023-09-03T13:15:24.222Z,73.07
2023-09-03T13:17:55.246Z,74.42
2023-09-03T13:20:25.066Z,74.46
2023-09-03T13:22:54.785Z,77.09
2023-09-03T13:25:34.500Z,75.51
2023-09-03T13:28:07.509Z,71.43
2023-09-03T13:30:41.294Z,70.10
2023-09-03T13:33:17.318Z,71.84
2023-09-03T13:35:53.837Z,69.86
2023-09-03T13:38:23.689Z,70.65
2023-09-03T13:40:55.867Z,71.85
2023-09-03T13:43:25.474Z,70.28
2023-09-03T13:45:55.687Z,73.44
2023-09-03T13:48:26.052Z,72.96
2023-09-03T13:50:57.062Z,69.25
2023-09-03T13:53:26.918Z,68.94
2023-09-03T13:56:06.215Z,69.17
2023-09-03T13:58:35.916Z,68.91
2023-09-03T14:01:10.851Z,69.35
2023-09-03T14:03:40.764Z,70.34
2023-09-03T14:06:10.948Z,74.87
2023-09-03T14:08:40.601Z,73.25
2023-09-03T14:11:11.863Z,70.36
2023-09-03T14:13:45.140Z,73.78
2023-09-03T14:16:18.280Z,68.49
2023-09-03T14:18:48.204Z,67.65
2023-09-03T14:21:19.928Z,68.22
2023-09-03T14:23:49.996Z,67.15
2023-09-03T14:26:21.217Z,67.55
2023-09-03T14:28:52.222Z,66.49
2023-09-03T14:31:22.167Z,67.74
2023-09-03T14:33:51.718Z,71.81
2023-09-03T14:36:21.311Z,66.50
2023-09-03T14:38:51.169Z,69.73
2023-09-03T14:41:22.085Z,69.43
2023-09-03T14:43:51.571Z,70.59
2023-09-03T14:46:21.320Z,69.33
2023-09-03T14:48:50.807Z,71.29
2023-09-03T14:51:20.379Z,71.56
2023-09-03T14:53:50.803Z,71.50
2023-09-03T14:56:23.666Z,70.06
2023-09-03T14:58:53.397Z,70.34
2023-09-03T15:01:25.323Z,69.69
2023-09-03T15:03:55.064Z,70.83
2023-09-03T15:06:26.770Z,71.43
2023-09-03T15:08:56.351Z,70.84
2023-09-03T15:11:27.995Z,71.57
2023-09-03T15:14:01.383Z,72.83
2023-09-03T15:16:34.887Z,69.50
2023-09-03T15:19:04.965Z,66.47
2023-09-03T15:21:34.940Z,66.89
2023-09-03T15:24:05.053Z,67.03
2023-09-03T15:26:35.867Z,64.71
2023-09-03T15:29:06.519Z,64.00
2023-09-03T15:31:36.098Z,66.55
2023-09-03T15:34:09.797Z,66.94
2023-09-03T15:36:39.395Z,67.40
2023-09-03T15:39:08.891Z,67.64
2023-09-03T15:41:39.738Z,67.91
2023-09-03T15:44:09.350Z,67.28
2023-09-03T15:46:39.220Z,67.87
2023-09-03T15:49:10.250Z,68.22
2023-09-03T15:51:40.517Z,67.63
2023-09-03T15:54:09.966Z,67.47
2023-09-03T15:56:41.960Z,68.10
2023-09-03T15:59:12.030Z,68.07
2023-09-03T16:01:41.533Z,68.31
2023-09-03T16:04:11.027Z,67.39
2023-09-03T16:06:40.499Z,67.63
2023-09-03T16:09:09.984Z,68.04
2023-09-03T16:11:40.797Z,67.50
2023-09-03T16:14:10.596Z,67.48
2023-09-03T16:16:40.069Z,67.99
2023-09-03T16:19:10.293Z,68.04
2023-09-03T16:21:41.354Z,69.55
2023-09-03T16:24:11.057Z,70.54
2023-09-03T16:26:41.991Z,71.47
2023-09-03T16:29:11.482Z,72.59
2023-09-03T16:31:41.149Z,74.51
2023-09-03T16:34:10.942Z,76.80
2023-09-03T16:36:44.513Z,78.25
2023-09-03T16:39:14.044Z,79.61
2023-09-03T16:41:44.903Z,82.13
2023-09-03T16:44:14.413Z,82.58
2023-09-03T16:46:44.099Z,84.85
2023-09-03T16:49:14.032Z,87.38
2023-09-03T16:51:45.279Z,85.66
2023-09-03T16:54:14.729Z,86.91
2023-09-03T16:56:45.581Z,88.29
2023-09-03T16:59:15.268Z,89.36
2023-09-03T17:01:44.766Z,92.99
2023-09-03T17:04:14.247Z,94.63
2023-09-03T17:06:45.442Z,96.36
2023-09-03T17:09:15.072Z,98.17
2023-09-03T17:11:45.910Z,100.00
2023-09-03T17:14:15.587Z,100.00
2023-09-03T17:16:45.094Z,100.00
2023-09-03T17:19:14.644Z,100.00
2023-09-03T17:21:44.240Z,100.00
2023-09-03T17:24:14.682Z,100.00
2023-09-03T17:26:45.887Z,100.00
2023-09-03T17:29:15.411Z,100.00
2023-09-03T17:31:44.881Z,100.00
2023-09-03T17:34:14.346Z,100.00
2023-09-03T17:36:43.817Z,100.00
2023-09-03T17:39:13.752Z,100.00
2023-09-03T17:41:44.859Z,100.00
2023-09-03T17:44:14.408Z,100.00
2023-09-03T17:46:44.908Z,100.00
2023-09-03T17:49:14.351Z,100.00
2023-09-03T17:51:43.924Z,100.00
2023-09-03T17:54:13.481Z,100.00
2023-09-03T17:56:43.263Z,100.00
2023-09-03T17:59:14.155Z,100.00
2023-09-03T18:01:43.693Z,100.00
2023-09-03T18:04:13.215Z,100.00
2023-09-03T18:06:42.674Z,100.00
2023-09-03T18:09:12.425Z,100.00
2023-09-03T18:11:41.915Z,100.00
2023-09-03T18:14:12.781Z,100.00
2023-09-03T18:16:42.255Z,100.00
2023-09-03T18:19:12.234Z,100.00
2023-09-03T18:21:41.724Z,100.00
2023-09-03T18:24:11.208Z,100.00
2023-09-03T18:26:40.707Z,100.00
2023-09-03T18:29:10.930Z,100.00
2023-09-03T18:31:41.780Z,100.00
2023-09-03T18:34:11.317Z,100.00
2023-09-03T18:36:41.946Z,100.00
2023-09-03T18:39:11.858Z,100.00
2023-09-03T18:41:41.294Z,100.00
2023-09-03T18:44:11.722Z,100.00
2023-09-03T18:46:44.383Z,100.00
2023-09-03T18:49:14.991Z,100.00
2023-09-03T18:51:47.614Z,100.00
2023-09-03T18:54:16.925Z,100.00
2023-09-03T18:56:47.664Z,100.00
2023-09-03T18:59:18.650Z,100.00
2023-09-03T19:01:49.538Z,100.00
2023-09-03T19:04:19.825Z,100.00
2023-09-03T19:06:52.715Z,100.00
2023-09-03T19:09:23.472Z,100.00
2023-09-03T19:11:52.960Z,100.00
2023-09-03T19:14:22.433Z,100.00
2023-09-03T19:16:53.513Z,100.00
2023-09-03T19:19:22.985Z,100.00
2023-09-03T19:21:52.469Z,100.00
2023-09-03T19:24:23.890Z,100.00
2023-09-03T19:26:53.814Z,100.00
2023-09-03T19:29:23.758Z,100.00
2023-09-03T19:31:55.723Z,100.00
2023-09-03T19:34:27.698Z,100.00
2023-09-03T19:36:57.132Z,100.00
2023-09-03T19:39:26.631Z,100.00
2023-09-03T19:41:56.641Z,100.00
2023-09-03T19:44:26.291Z,100.00
2023-09-03T19:46:57.147Z,100.00
2023-09-03T19:49:26.682Z,100.00
2023-09-03T19:51:56.327Z,100.00
2023-09-03T19:54:25.909Z,100.00
2023-09-03T19:56:55.360Z,100.00
2023-09-03T19:59:25.053Z,100.00
2023-09-03T20:01:55.962Z,100.00
2023-09-03T20:04:25.586Z,100.00
2023-09-03T20:06:55.080Z,100.00
2023-09-03T20:09:24.737Z,100.00
2023-09-03T20:11:54.207Z,100.00
2023-09-03T20:14:23.738Z,100.00
2023-09-03T20:16:53.209Z,100.00
2023-09-03T20:19:24.138Z,100.00
2023-09-03T20:21:53.611Z,100.00
2023-09-03T20:24:23.170Z,100.00
2023-09-03T20:26:52.652Z,100.00
2023-09-03T20:29:22.119Z,100.00
2023-09-03T20:31:51.653Z,100.00
2023-09-03T20:34:21.209Z,100.00
2023-09-03T20:36:52.045Z,100.00
2023-09-03T20:39:21.504Z,100.00
2023-09-03T20:41:50.991Z,100.00
2023-09-03T20:44:20.662Z,100.00
2023-09-03T20:46:50.228Z,100.00
2023-09-03T20:49:19.689Z,100.00
2023-09-03T20:51:49.490Z,100.00
2023-09-03T20:54:20.372Z,100.00
2023-09-03T20:56:49.818Z,100.00
2023-09-03T20:59:19.362Z,100.00
2023-09-03T21:01:49.233Z,100.00
2023-09-03T21:04:18.735Z,100.00
2023-09-03T21:06:48.238Z,100.00
2023-09-03T21:09:19.137Z,100.00
2023-09-03T21:11:48.614Z,100.00
2023-09-03T21:14:18.075Z,100.00
2023-09-03T21:16:47.682Z,100.00
2023-09-03T21:19:17.255Z,100.00
2023-09-03T21:21:46.842Z,100.00
2023-09-03T21:24:16.368Z,100.00
2023-09-03T21:26:47.554Z,100.00
2023-09-03T21:29:20.188Z,100.00
2023-09-03T21:31:49.699Z,100.00
2023-09-03T21:34:20.439Z,100.00
2023-09-03T21:36:49.989Z,100.00
2023-09-03T21:39:19.619Z,100.00
2023-09-03T21:41:50.474Z,100.00
2023-09-03T21:44:20.784Z,100.00
2023-09-03T21:46:51.084Z,100.00
2023-09-03T21:49:20.595Z,100.00
2023-09-03T21:51:50.214Z,100.00
2023-09-03T21:54:20.058Z,100.00
2023-09-03T21:56:50.908Z,100.00
2023-09-03T21:59:20.448Z,100.00
2023-09-03T22:01:49.953Z,100.00
2023-09-03T22:04:19.967Z,100.00
2023-09-03T22:06:49.910Z,100.00
2023-09-03T22:09:21.201Z,100.00
2023-09-03T22:11:52.050Z,100.00
2023-09-03T22:14:21.617Z,100.00
2023-09-03T22:16:51.064Z,100.00
2023-09-03T22:19:26.571Z,100.00
2023-09-03T22:21:57.075Z,100.00
2023-09-03T22:24:27.351Z,100.00
2023-09-03T22:26:58.260Z,100.00
2023-09-03T22:29:28.021Z,100.00
2023-09-03T22:31:57.585Z,100.00
2023-09-03T22:34:29.214Z,100.00
2023-09-03T22:36:58.694Z,100.00
2023-09-03T22:39:28.710Z,100.00
2023-09-03T22:41:59.552Z,100.00
2023-09-03T22:44:29.056Z,100.00
2023-09-03T22:46:59.424Z,100.00
2023-09-03T22:49:29.352Z,100.00
2023-09-03T22:51:58.859Z,100.00
2023-09-03T22:54:31.624Z,100.00
2023-09-03T22:57:02.464Z,100.00
2023-09-03T22:59:36.089Z,100.00
2023-09-03T23:02:06.320Z,100.00
2023-09-03T23:04:35.906Z,100.00
2023-09-03T23:07:05.699Z,100.00
2023-09-03T23:09:35.216Z,100.00
2023-09-03T23:12:07.096Z,100.00
2023-09-03T23:14:36.698Z,100.00
2023-09-03T23:17:06.662Z,100.00
2023-09-03T23:19:36.162Z,100.00
2023-09-03T23:22:06.962Z,100.00
2023-09-03T23:24:36.439Z,100.00
2023-09-03T23:27:07.641Z,100.00
2023-09-03T23:29:37.432Z,100.00
2023-09-03T23:32:08.088Z,100.00
2023-09-03T23:34:37.596Z,100.00
2023-09-03T23:37:07.132Z,100.00
2023-09-03T23:39:36.669Z,100.00
2023-09-03T23:42:07.908Z,100.00
2023-09-03T23:44:37.423Z,100.00
2023-09-03T23:47:14.097Z,100.00
2023-09-03T23:49:44.657Z,100.00
2023-09-03T23:52:14.166Z,100.00
2023-09-03T23:54:43.867Z,100.00
2023-09-03T23:57:14.762Z,100.00
2023-09-03T23:59:44.463Z,100.00
